sensor_id;sensor_type;location;lat;lon;timestamp;temperature;humidity
11961;DHT22;6040;49.358;11.140;2023-07-31T00:01:15;14.20;99.90
11961;DHT22;6040;49.358;11.140;2023-07-31T00:03:43;14.20;99.90
11961;DHT22;6040;49.358;11.140;2023-07-31T00:06:10;14.20;99.90
11961;DHT22;6040;49.358;11.140;2023-07-31T00:08:37;14.20;99.90
11961;DHT22;6040;49.358;11.140;2023-07-31T00:11:04;14.20;99.90
11961;DHT22;6040;49.358;11.140;2023-07-31T00:13:30;14.20;99.90
11961;DHT22;6040;49.358;11.140;2023-07-31T00:15:57;14.60;99.90
11961;DHT22;6040;49.358;11.140;2023-07-31T00:18:24;14.10;99.90
11961;DHT22;6040;49.358;11.140;2023-07-31T00:20:52;14.10;99.90
11961;DHT22;6040;49.358;11.140;2023-07-31T00:23:19;14.80;99.90
11961;DHT22;6040;49.358;11.140;2023-07-31T00:25:46;15.80;99.90
11961;DHT22;6040;49.358;11.140;2023-07-31T00:28:13;14.10;99.90
11961;DHT22;6040;49.358;11.140;2023-07-31T00:30:39;14.10;99.90
11961;DHT22;6040;49.358;11.140;2023-07-31T00:33:06;14.10;99.90
11961;DHT22;6040;49.358;11.140;2023-07-31T00:35:33;14.10;99.90
11961;DHT22;6040;49.358;11.140;2023-07-31T00:38:01;14.10;99.90
11961;DHT22;6040;49.358;11.140;2023-07-31T00:40:28;14.10;99.90
11961;DHT22;6040;49.358;11.140;2023-07-31T00:42:55;14.10;99.90
11961;DHT22;6040;49.358;11.140;2023-07-31T00:45:22;14.10;99.90
11961;DHT22;6040;49.358;11.140;2023-07-31T00:47:50;14.00;99.90
11961;DHT22;6040;49.358;11.140;2023-07-31T00:50:17;14.00;99.90
11961;DHT22;6040;49.358;11.140;2023-07-31T00:52:44;14.00;99.90
11961;DHT22;6040;49.358;11.140;2023-07-31T00:55:12;14.00;99.90
11961;DHT22;6040;49.358;11.140;2023-07-31T00:57:41;13.90;99.90
11961;DHT22;6040;49.358;11.140;2023-07-31T01:00:09;13.90;99.90
11961;DHT22;6040;49.358;11.140;2023-07-31T01:02:36;13.90;99.90
11961;DHT22;6040;49.358;11.140;2023-07-31T01:05:04;13.80;99.90
11961;DHT22;6040;49.358;11.140;2023-07-31T01:07:37;13.80;99.90
11961;DHT22;6040;49.358;11.140;2023-07-31T01:10:10;13.80;99.90
11961;DHT22;6040;49.358;11.140;2023-07-31T01:12:39;13.80;99.90
11961;DHT22;6040;49.358;11.140;2023-07-31T01:15:08;13.70;99.90
11961;DHT22;6040;49.358;11.140;2023-07-31T01:17:36;13.70;99.90
11961;DHT22;6040;49.358;11.140;2023-07-31T01:20:07;13.70;99.90
11961;DHT22;6040;49.358;11.140;2023-07-31T01:25:50;13.70;99.90
11961;DHT22;6040;49.358;11.140;2023-07-31T01:28:24;13.00;99.90
11961;DHT22;6040;49.358;11.140;2023-07-31T01:30:53;13.70;99.90
11961;DHT22;6040;49.358;11.140;2023-07-31T01:33:21;13.70;99.90
11961;DHT22;6040;49.358;11.140;2023-07-31T01:35:49;13.80;99.90
11961;DHT22;6040;49.358;11.140;2023-07-31T01:38:20;13.80;99.90
11961;DHT22;6040;49.358;11.140;2023-07-31T01:40:52;13.80;99.90
11961;DHT22;6040;49.358;11.140;2023-07-31T01:43:19;13.90;99.90
11961;DHT22;6040;49.358;11.140;2023-07-31T01:45:46;13.90;99.90
11961;DHT22;6040;49.358;11.140;2023-07-31T01:48:13;13.90;99.90
11961;DHT22;6040;49.358;11.140;2023-07-31T01:50:40;14.00;99.90
11961;DHT22;6040;49.358;11.140;2023-07-31T01:53:07;14.00;99.90
11961;DHT22;6040;49.358;11.140;2023-07-31T01:55:33;14.00;99.90
11961;DHT22;6040;49.358;11.140;2023-07-31T01:58:01;14.00;99.90
11961;DHT22;6040;49.358;11.140;2023-07-31T02:00:28;14.00;99.90
11961;DHT22;6040;49.358;11.140;2023-07-31T02:02:55;14.00;99.90
11961;DHT22;6040;49.358;11.140;2023-07-31T02:05:22;14.00;99.90
11961;DHT22;6040;49.358;11.140;2023-07-31T02:07:49;14.00;99.90
11961;DHT22;6040;49.358;11.140;2023-07-31T02:10:15;14.00;99.90
11961;DHT22;6040;49.358;11.140;2023-07-31T02:12:42;14.10;99.90
11961;DHT22;6040;49.358;11.140;2023-07-31T02:15:11;14.10;99.90
11961;DHT22;6040;49.358;11.140;2023-07-31T02:17:37;14.20;99.90
11961;DHT22;6040;49.358;11.140;2023-07-31T02:20:05;14.20;99.90
11961;DHT22;6040;49.358;11.140;2023-07-31T02:22:32;14.20;99.90
11961;DHT22;6040;49.358;11.140;2023-07-31T02:24:59;14.20;99.90
11961;DHT22;6040;49.358;11.140;2023-07-31T02:27:26;14.30;99.90
11961;DHT22;6040;49.358;11.140;2023-07-31T02:29:53;14.30;99.90
11961;DHT22;6040;49.358;11.140;2023-07-31T02:32:21;14.30;99.90
11961;DHT22;6040;49.358;11.140;2023-07-31T02:34:48;14.30;99.90
11961;DHT22;6040;49.358;11.140;2023-07-31T02:37:15;14.30;99.90
11961;DHT22;6040;49.358;11.140;2023-07-31T02:39:41;14.30;99.90
11961;DHT22;6040;49.358;11.140;2023-07-31T02:42:08;14.30;99.90
11961;DHT22;6040;49.358;11.140;2023-07-31T02:44:35;14.30;99.90
11961;DHT22;6040;49.358;11.140;2023-07-31T02:47:02;15.50;99.90
11961;DHT22;6040;49.358;11.140;2023-07-31T02:49:31;14.40;99.90
11961;DHT22;6040;49.358;11.140;2023-07-31T02:51:57;14.40;99.90
11961;DHT22;6040;49.358;11.140;2023-07-31T02:54:24;15.20;99.90
11961;DHT22;6040;49.358;11.140;2023-07-31T02:56:51;14.50;99.90
11961;DHT22;6040;49.358;11.140;2023-07-31T02:59:18;14.40;99.90
11961;DHT22;6040;49.358;11.140;2023-07-31T03:01:44;14.40;99.90
11961;DHT22;6040;49.358;11.140;2023-07-31T03:04:11;14.40;99.90
11961;DHT22;6040;49.358;11.140;2023-07-31T03:06:40;14.40;99.90
11961;DHT22;6040;49.358;11.140;2023-07-31T03:09:06;14.40;99.90
11961;DHT22;6040;49.358;11.140;2023-07-31T03:11:33;14.50;99.90
11961;DHT22;6040;49.358;11.140;2023-07-31T03:14:00;14.50;99.90
11961;DHT22;6040;49.358;11.140;2023-07-31T03:16:27;14.50;99.90
11961;DHT22;6040;49.358;11.140;2023-07-31T03:18:54;14.50;99.90
11961;DHT22;6040;49.358;11.140;2023-07-31T03:21:21;14.50;99.90
11961;DHT22;6040;49.358;11.140;2023-07-31T03:23:49;14.60;99.90
11961;DHT22;6040;49.358;11.140;2023-07-31T03:26:16;14.60;99.90
11961;DHT22;6040;49.358;11.140;2023-07-31T03:28:42;14.60;99.90
11961;DHT22;6040;49.358;11.140;2023-07-31T03:31:09;14.60;99.90
11961;DHT22;6040;49.358;11.140;2023-07-31T03:33:37;14.60;99.90
11961;DHT22;6040;49.358;11.140;2023-07-31T03:36:04;14.60;99.90
11961;DHT22;6040;49.358;11.140;2023-07-31T03:38:31;14.60;99.90
11961;DHT22;6040;49.358;11.140;2023-07-31T03:40:59;15.40;99.90
11961;DHT22;6040;49.358;11.140;2023-07-31T03:43:27;14.50;99.90
11961;DHT22;6040;49.358;11.140;2023-07-31T03:45:54;14.60;99.90
11961;DHT22;6040;49.358;11.140;2023-07-31T03:48:21;14.50;99.90
11961;DHT22;6040;49.358;11.140;2023-07-31T03:50:48;14.60;99.90
11961;DHT22;6040;49.358;11.140;2023-07-31T03:53:15;14.50;99.90
11961;DHT22;6040;49.358;11.140;2023-07-31T03:55:41;14.50;99.90
11961;DHT22;6040;49.358;11.140;2023-07-31T03:58:09;14.60;99.90
11961;DHT22;6040;49.358;11.140;2023-07-31T04:00:36;14.60;99.90
11961;DHT22;6040;49.358;11.140;2023-07-31T04:03:03;14.60;99.90
11961;DHT22;6040;49.358;11.140;2023-07-31T04:05:31;14.60;99.90
11961;DHT22;6040;49.358;11.140;2023-07-31T04:07:57;14.60;99.90
11961;DHT22;6040;49.358;11.140;2023-07-31T04:10:24;15.20;99.90
11961;DHT22;6040;49.358;11.140;2023-07-31T04:12:51;14.60;99.90
11961;DHT22;6040;49.358;11.140;2023-07-31T04:15:19;14.50;99.90
11961;DHT22;6040;49.358;11.140;2023-07-31T04:17:46;16.00;99.90
11961;DHT22;6040;49.358;11.140;2023-07-31T04:20:13;14.60;99.90
11961;DHT22;6040;49.358;11.140;2023-07-31T04:22:39;14.60;99.90
11961;DHT22;6040;49.358;11.140;2023-07-31T04:25:07;14.60;99.90
11961;DHT22;6040;49.358;11.140;2023-07-31T04:27:34;14.70;99.90
11961;DHT22;6040;49.358;11.140;2023-07-31T04:30:00;14.70;99.90
11961;DHT22;6040;49.358;11.140;2023-07-31T04:32:29;14.60;99.90
11961;DHT22;6040;49.358;11.140;2023-07-31T04:34:55;14.60;99.90
11961;DHT22;6040;49.358;11.140;2023-07-31T04:37:22;14.60;99.90
11961;DHT22;6040;49.358;11.140;2023-07-31T04:39:49;15.20;99.90
11961;DHT22;6040;49.358;11.140;2023-07-31T04:42:16;14.60;99.90
11961;DHT22;6040;49.358;11.140;2023-07-31T04:44:42;14.60;99.90
11961;DHT22;6040;49.358;11.140;2023-07-31T04:47:09;14.70;99.90
11961;DHT22;6040;49.358;11.140;2023-07-31T04:49:37;14.70;99.90
11961;DHT22;6040;49.358;11.140;2023-07-31T04:52:05;14.70;99.90
11961;DHT22;6040;49.358;11.140;2023-07-31T04:54:32;14.70;99.90
11961;DHT22;6040;49.358;11.140;2023-07-31T04:56:58;14.80;99.90
11961;DHT22;6040;49.358;11.140;2023-07-31T04:59:25;14.90;99.90
11961;DHT22;6040;49.358;11.140;2023-07-31T05:01:52;14.80;99.90
11961;DHT22;6040;49.358;11.140;2023-07-31T05:04:19;14.90;99.90
11961;DHT22;6040;49.358;11.140;2023-07-31T05:06:47;16.40;99.90
11961;DHT22;6040;49.358;11.140;2023-07-31T05:09:14;15.00;99.90
11961;DHT22;6040;49.358;11.140;2023-07-31T05:11:40;15.00;99.90
11961;DHT22;6040;49.358;11.140;2023-07-31T05:14:08;15.10;99.90
11961;DHT22;6040;49.358;11.140;2023-07-31T05:16:35;15.10;99.90
11961;DHT22;6040;49.358;11.140;2023-07-31T05:19:02;15.20;99.90
11961;DHT22;6040;49.358;11.140;2023-07-31T05:21:28;15.20;99.90
11961;DHT22;6040;49.358;11.140;2023-07-31T05:23:57;15.30;99.90
11961;DHT22;6040;49.358;11.140;2023-07-31T05:26:23;15.40;99.90
11961;DHT22;6040;49.358;11.140;2023-07-31T05:28:50;15.30;99.90
11961;DHT22;6040;49.358;11.140;2023-07-31T05:31:17;15.40;99.90
11961;DHT22;6040;49.358;11.140;2023-07-31T05:33:44;15.40;99.90
11961;DHT22;6040;49.358;11.140;2023-07-31T05:36:12;15.50;99.90
11961;DHT22;6040;49.358;11.140;2023-07-31T05:38:38;15.50;99.90
11961;DHT22;6040;49.358;11.140;2023-07-31T05:41:07;15.50;99.90
11961;DHT22;6040;49.358;11.140;2023-07-31T05:43:34;15.50;99.90
11961;DHT22;6040;49.358;11.140;2023-07-31T05:46:01;15.50;99.90
11961;DHT22;6040;49.358;11.140;2023-07-31T05:48:28;15.60;99.90
11961;DHT22;6040;49.358;11.140;2023-07-31T05:50:55;15.60;99.90
11961;DHT22;6040;49.358;11.140;2023-07-31T05:53:22;15.70;99.90
11961;DHT22;6040;49.358;11.140;2023-07-31T05:55:49;16.30;99.90
11961;DHT22;6040;49.358;11.140;2023-07-31T05:58:17;15.90;99.90
11961;DHT22;6040;49.358;11.140;2023-07-31T06:00:43;15.90;99.90
11961;DHT22;6040;49.358;11.140;2023-07-31T06:03:10;16.00;99.90
11961;DHT22;6040;49.358;11.140;2023-07-31T06:05:37;16.10;99.90
11961;DHT22;6040;49.358;11.140;2023-07-31T06:08:04;16.20;99.90
11961;DHT22;6040;49.358;11.140;2023-07-31T06:10:31;16.30;99.90
11961;DHT22;6040;49.358;11.140;2023-07-31T06:12:57;16.40;99.90
11961;DHT22;6040;49.358;11.140;2023-07-31T06:15:26;16.60;99.90
11961;DHT22;6040;49.358;11.140;2023-07-31T06:17:52;16.70;99.90
11961;DHT22;6040;49.358;11.140;2023-07-31T06:20:19;16.90;99.90
11961;DHT22;6040;49.358;11.140;2023-07-31T06:22:46;17.10;99.90
11961;DHT22;6040;49.358;11.140;2023-07-31T06:25:13;17.30;99.90
11961;DHT22;6040;49.358;11.140;2023-07-31T06:27:39;17.50;99.90
11961;DHT22;6040;49.358;11.140;2023-07-31T06:30:07;17.50;99.90
11961;DHT22;6040;49.358;11.140;2023-07-31T06:32:35;17.60;99.90
11961;DHT22;6040;49.358;11.140;2023-07-31T06:35:02;17.70;99.90
11961;DHT22;6040;49.358;11.140;2023-07-31T06:37:29;17.80;99.90
11961;DHT22;6040;49.358;11.140;2023-07-31T06:39:56;18.00;99.90
11961;DHT22;6040;49.358;11.140;2023-07-31T06:42:23;18.20;99.90
11961;DHT22;6040;49.358;11.140;2023-07-31T06:44:50;18.20;99.90
11961;DHT22;6040;49.358;11.140;2023-07-31T06:47:17;18.30;99.90
11961;DHT22;6040;49.358;11.140;2023-07-31T06:49:45;18.40;99.90
11961;DHT22;6040;49.358;11.140;2023-07-31T06:52:11;18.50;99.90
11961;DHT22;6040;49.358;11.140;2023-07-31T06:54:38;19.00;99.90
11961;DHT22;6040;49.358;11.140;2023-07-31T06:57:05;19.30;99.90
11961;DHT22;6040;49.358;11.140;2023-07-31T06:59:32;19.40;99.90
11961;DHT22;6040;49.358;11.140;2023-07-31T07:01:59;19.80;99.90
11961;DHT22;6040;49.358;11.140;2023-07-31T07:04:26;19.90;99.90
11961;DHT22;6040;49.358;11.140;2023-07-31T07:06:54;20.10;99.90
11961;DHT22;6040;49.358;11.140;2023-07-31T07:09:21;20.20;99.90
11961;DHT22;6040;49.358;11.140;2023-07-31T07:11:48;20.20;99.90
11961;DHT22;6040;49.358;11.140;2023-07-31T07:14:14;20.30;99.90
11961;DHT22;6040;49.358;11.140;2023-07-31T07:16:41;20.40;99.90
11961;DHT22;6040;49.358;11.140;2023-07-31T07:19:08;20.80;99.90
11961;DHT22;6040;49.358;11.140;2023-07-31T07:21:35;21.00;99.90
11961;DHT22;6040;49.358;11.140;2023-07-31T07:24:03;21.10;99.90
11961;DHT22;6040;49.358;11.140;2023-07-31T07:26:30;21.10;99.90
11961;DHT22;6040;49.358;11.140;2023-07-31T07:28:57;21.30;99.70
11961;DHT22;6040;49.358;11.140;2023-07-31T07:31:26;21.30;99.60
11961;DHT22;6040;49.358;11.140;2023-07-31T07:33:53;21.00;99.40
11961;DHT22;6040;49.358;11.140;2023-07-31T07:36:20;20.80;99.90
11961;DHT22;6040;49.358;11.140;2023-07-31T07:38:47;20.80;99.70
11961;DHT22;6040;49.358;11.140;2023-07-31T07:41:15;20.70;99.90
11961;DHT22;6040;49.358;11.140;2023-07-31T07:43:41;20.50;99.90
11961;DHT22;6040;49.358;11.140;2023-07-31T07:46:08;20.60;99.90
11961;DHT22;6040;49.358;11.140;2023-07-31T07:48:35;20.70;99.90
11961;DHT22;6040;49.358;11.140;2023-07-31T07:51:02;20.50;99.90
11961;DHT22;6040;49.358;11.140;2023-07-31T07:53:29;20.50;99.90
11961;DHT22;6040;49.358;11.140;2023-07-31T07:55:55;20.50;99.90
11961;DHT22;6040;49.358;11.140;2023-07-31T07:58:23;20.50;99.90
11961;DHT22;6040;49.358;11.140;2023-07-31T08:00:51;20.60;99.70
11961;DHT22;6040;49.358;11.140;2023-07-31T08:03:18;20.70;99.70
11961;DHT22;6040;49.358;11.140;2023-07-31T08:05:45;20.90;99.90
11961;DHT22;6040;49.358;11.140;2023-07-31T08:08:14;21.10;99.70
11961;DHT22;6040;49.358;11.140;2023-07-31T08:10:41;21.10;99.60
11961;DHT22;6040;49.358;11.140;2023-07-31T08:13:09;21.30;98.80
11961;DHT22;6040;49.358;11.140;2023-07-31T08:15:38;21.50;99.70
11961;DHT22;6040;49.358;11.140;2023-07-31T08:18:07;21.60;99.50
11961;DHT22;6040;49.358;11.140;2023-07-31T08:20:34;21.60;98.70
11961;DHT22;6040;49.358;11.140;2023-07-31T08:23:00;21.60;98.50
11961;DHT22;6040;49.358;11.140;2023-07-31T08:25:27;21.50;98.60
11961;DHT22;6040;49.358;11.140;2023-07-31T08:27:54;21.40;98.40
11961;DHT22;6040;49.358;11.140;2023-07-31T08:30:21;21.50;98.50
11961;DHT22;6040;49.358;11.140;2023-07-31T08:32:50;21.60;98.00
11961;DHT22;6040;49.358;11.140;2023-07-31T08:35:17;21.80;97.70
11961;DHT22;6040;49.358;11.140;2023-07-31T08:37:43;22.00;97.60
11961;DHT22;6040;49.358;11.140;2023-07-31T08:40:11;22.60;98.10
11961;DHT22;6040;49.358;11.140;2023-07-31T08:42:43;23.00;97.50
11961;DHT22;6040;49.358;11.140;2023-07-31T08:45:14;23.50;97.00
11961;DHT22;6040;49.358;11.140;2023-07-31T08:47:42;23.80;96.10
11961;DHT22;6040;49.358;11.140;2023-07-31T08:50:11;24.00;96.50
11961;DHT22;6040;49.358;11.140;2023-07-31T08:52:38;24.20;94.90
11961;DHT22;6040;49.358;11.140;2023-07-31T08:55:06;24.10;94.60
11961;DHT22;6040;49.358;11.140;2023-07-31T08:57:36;24.00;94.10
11961;DHT22;6040;49.358;11.140;2023-07-31T09:00:05;24.20;95.20
11961;DHT22;6040;49.358;11.140;2023-07-31T09:02:38;24.00;94.30
11961;DHT22;6040;49.358;11.140;2023-07-31T09:05:09;23.70;95.60
11961;DHT22;6040;49.358;11.140;2023-07-31T09:07:37;23.80;95.60
11961;DHT22;6040;49.358;11.140;2023-07-31T09:10:05;24.20;95.80
11961;DHT22;6040;49.358;11.140;2023-07-31T09:12:32;24.40;94.70
11961;DHT22;6040;49.358;11.140;2023-07-31T09:15:00;24.30;94.40
11961;DHT22;6040;49.358;11.140;2023-07-31T09:17:31;24.20;95.20
11961;DHT22;6040;49.358;11.140;2023-07-31T09:19:58;24.70;94.10
11961;DHT22;6040;49.358;11.140;2023-07-31T09:22:40;25.00;92.70
11961;DHT22;6040;49.358;11.140;2023-07-31T09:25:15;24.90;92.40
11961;DHT22;6040;49.358;11.140;2023-07-31T09:27:49;25.20;92.90
11961;DHT22;6040;49.358;11.140;2023-07-31T09:30:17;25.30;93.10
11961;DHT22;6040;49.358;11.140;2023-07-31T09:32:45;25.10;92.80
11961;DHT22;6040;49.358;11.140;2023-07-31T09:35:20;25.20;91.10
11961;DHT22;6040;49.358;11.140;2023-07-31T09:37:56;25.10;92.10
11961;DHT22;6040;49.358;11.140;2023-07-31T09:40:31;25.00;92.60
11961;DHT22;6040;49.358;11.140;2023-07-31T09:42:59;25.60;93.10
11961;DHT22;6040;49.358;11.140;2023-07-31T09:45:26;25.70;92.40
11961;DHT22;6040;49.358;11.140;2023-07-31T09:47:53;25.80;92.20
11961;DHT22;6040;49.358;11.140;2023-07-31T09:50:21;26.00;92.10
11961;DHT22;6040;49.358;11.140;2023-07-31T09:52:48;26.00;91.40
11961;DHT22;6040;49.358;11.140;2023-07-31T09:55:17;26.20;92.00
11961;DHT22;6040;49.358;11.140;2023-07-31T09:57:46;25.80;89.30
11961;DHT22;6040;49.358;11.140;2023-07-31T10:00:14;25.20;90.20
11961;DHT22;6040;49.358;11.140;2023-07-31T10:02:42;24.70;92.30
11961;DHT22;6040;49.358;11.140;2023-07-31T10:05:13;24.60;92.90
11961;DHT22;6040;49.358;11.140;2023-07-31T10:07:42;24.40;93.30
11961;DHT22;6040;49.358;11.140;2023-07-31T10:10:09;24.40;93.30
11961;DHT22;6040;49.358;11.140;2023-07-31T10:12:38;24.40;93.10
11961;DHT22;6040;49.358;11.140;2023-07-31T10:15:06;24.30;93.50
11961;DHT22;6040;49.358;11.140;2023-07-31T10:17:35;24.30;93.40
11961;DHT22;6040;49.358;11.140;2023-07-31T10:20:02;24.70;93.40
11961;DHT22;6040;49.358;11.140;2023-07-31T10:22:30;25.00;94.10
11961;DHT22;6040;49.358;11.140;2023-07-31T10:24:58;25.20;93.30
11961;DHT22;6040;49.358;11.140;2023-07-31T10:27:25;25.10;93.00
11961;DHT22;6040;49.358;11.140;2023-07-31T10:29:55;25.30;92.40
11961;DHT22;6040;49.358;11.140;2023-07-31T10:32:23;25.50;93.10
11961;DHT22;6040;49.358;11.140;2023-07-31T10:34:51;25.50;92.70
11961;DHT22;6040;49.358;11.140;2023-07-31T10:37:25;25.00;92.00
11961;DHT22;6040;49.358;11.140;2023-07-31T10:39:57;25.20;91.80
11961;DHT22;6040;49.358;11.140;2023-07-31T10:42:31;25.10;92.20
11961;DHT22;6040;49.358;11.140;2023-07-31T10:45:02;24.90;92.60
11961;DHT22;6040;49.358;11.140;2023-07-31T10:47:30;24.60;91.70
11961;DHT22;6040;49.358;11.140;2023-07-31T10:50:13;24.40;93.30
11961;DHT22;6040;49.358;11.140;2023-07-31T10:52:46;24.40;93.50
11961;DHT22;6040;49.358;11.140;2023-07-31T10:55:24;24.40;93.50
11961;DHT22;6040;49.358;11.140;2023-07-31T10:57:51;24.40;93.40
11961;DHT22;6040;49.358;11.140;2023-07-31T11:00:22;24.40;94.10
11961;DHT22;6040;49.358;11.140;2023-07-31T11:02:57;24.90;93.90
11961;DHT22;6040;49.358;11.140;2023-07-31T11:05:43;25.60;93.80
11961;DHT22;6040;49.358;11.140;2023-07-31T11:08:14;26.20;91.60
11961;DHT22;6040;49.358;11.140;2023-07-31T11:10:41;26.40;91.30
11961;DHT22;6040;49.358;11.140;2023-07-31T11:13:08;25.70;90.10
11961;DHT22;6040;49.358;11.140;2023-07-31T11:15:36;25.00;91.50
11961;DHT22;6040;49.358;11.140;2023-07-31T11:18:03;24.60;92.00
11961;DHT22;6040;49.358;11.140;2023-07-31T11:20:31;24.30;92.30
11961;DHT22;6040;49.358;11.140;2023-07-31T11:23:00;24.20;93.10
11961;DHT22;6040;49.358;11.140;2023-07-31T11:25:29;24.20;93.60
11961;DHT22;6040;49.358;11.140;2023-07-31T11:27:57;24.20;93.10
11961;DHT22;6040;49.358;11.140;2023-07-31T11:30:23;24.10;93.50
11961;DHT22;6040;49.358;11.140;2023-07-31T11:32:51;24.10;93.50
11961;DHT22;6040;49.358;11.140;2023-07-31T11:35:18;24.20;93.70
11961;DHT22;6040;49.358;11.140;2023-07-31T11:37:45;24.20;92.90
11961;DHT22;6040;49.358;11.140;2023-07-31T11:40:12;24.20;93.50
11961;DHT22;6040;49.358;11.140;2023-07-31T11:42:39;24.00;93.30
11961;DHT22;6040;49.358;11.140;2023-07-31T11:45:07;23.90;93.70
11961;DHT22;6040;49.358;11.140;2023-07-31T11:47:36;23.80;94.30
11961;DHT22;6040;49.358;11.140;2023-07-31T11:50:05;23.80;93.80
11961;DHT22;6040;49.358;11.140;2023-07-31T11:52:35;23.70;93.90
11961;DHT22;6040;49.358;11.140;2023-07-31T11:55:04;23.80;94.00
11961;DHT22;6040;49.358;11.140;2023-07-31T11:57:33;23.80;93.50
11961;DHT22;6040;49.358;11.140;2023-07-31T12:00:00;23.60;93.80
11961;DHT22;6040;49.358;11.140;2023-07-31T12:02:27;23.50;94.00
11961;DHT22;6040;49.358;11.140;2023-07-31T12:04:54;23.50;93.60
11961;DHT22;6040;49.358;11.140;2023-07-31T12:07:24;23.30;93.30
11961;DHT22;6040;49.358;11.140;2023-07-31T12:09:52;23.20;94.60
11961;DHT22;6040;49.358;11.140;2023-07-31T12:12:20;23.10;94.00
11961;DHT22;6040;49.358;11.140;2023-07-31T12:14:47;23.20;95.20
11961;DHT22;6040;49.358;11.140;2023-07-31T12:17:14;23.20;94.40
11961;DHT22;6040;49.358;11.140;2023-07-31T12:19:41;23.30;94.70
11961;DHT22;6040;49.358;11.140;2023-07-31T12:22:11;23.20;94.70
11961;DHT22;6040;49.358;11.140;2023-07-31T12:24:43;23.20;95.80
11961;DHT22;6040;49.358;11.140;2023-07-31T12:27:11;23.30;94.40
11961;DHT22;6040;49.358;11.140;2023-07-31T12:29:38;23.40;94.70
11961;DHT22;6040;49.358;11.140;2023-07-31T12:32:19;23.30;94.30
11961;DHT22;6040;49.358;11.140;2023-07-31T12:34:46;23.50;93.00
11961;DHT22;6040;49.358;11.140;2023-07-31T12:37:13;23.50;93.80
11961;DHT22;6040;49.358;11.140;2023-07-31T12:39:41;23.60;94.20
11961;DHT22;6040;49.358;11.140;2023-07-31T12:42:08;23.70;93.10
11961;DHT22;6040;49.358;11.140;2023-07-31T12:44:34;23.90;93.20
11961;DHT22;6040;49.358;11.140;2023-07-31T12:47:01;24.10;93.50
11961;DHT22;6040;49.358;11.140;2023-07-31T12:49:29;24.30;93.00
11961;DHT22;6040;49.358;11.140;2023-07-31T12:51:56;24.40;92.60
11961;DHT22;6040;49.358;11.140;2023-07-31T12:54:23;24.30;93.10
11961;DHT22;6040;49.358;11.140;2023-07-31T12:56:51;24.40;92.90
11961;DHT22;6040;49.358;11.140;2023-07-31T12:59:17;24.40;93.00
11961;DHT22;6040;49.358;11.140;2023-07-31T13:01:44;24.40;93.20
11961;DHT22;6040;49.358;11.140;2023-07-31T13:04:11;24.50;93.10
11961;DHT22;6040;49.358;11.140;2023-07-31T13:06:38;24.50;92.50
11961;DHT22;6040;49.358;11.140;2023-07-31T13:09:05;24.50;93.00
11961;DHT22;6040;49.358;11.140;2023-07-31T13:11:31;24.50;92.80
11961;DHT22;6040;49.358;11.140;2023-07-31T13:13:59;24.50;93.40
11961;DHT22;6040;49.358;11.140;2023-07-31T13:16:26;24.50;93.20
11961;DHT22;6040;49.358;11.140;2023-07-31T13:18:53;24.60;92.80
11961;DHT22;6040;49.358;11.140;2023-07-31T13:21:20;24.70;92.40
11961;DHT22;6040;49.358;11.140;2023-07-31T13:23:47;24.80;92.40
11961;DHT22;6040;49.358;11.140;2023-07-31T13:26:14;24.80;92.30
11961;DHT22;6040;49.358;11.140;2023-07-31T13:28:41;24.90;92.70
11961;DHT22;6040;49.358;11.140;2023-07-31T13:31:09;25.00;92.40
11961;DHT22;6040;49.358;11.140;2023-07-31T13:33:37;24.80;92.10
11961;DHT22;6040;49.358;11.140;2023-07-31T13:36:04;24.80;91.50
11961;DHT22;6040;49.358;11.140;2023-07-31T13:38:31;24.90;91.60
11961;DHT22;6040;49.358;11.140;2023-07-31T13:40:57;25.10;91.50
11961;DHT22;6040;49.358;11.140;2023-07-31T13:43:24;25.30;91.60
11961;DHT22;6040;49.358;11.140;2023-07-31T13:45:51;25.40;91.50
11961;DHT22;6040;49.358;11.140;2023-07-31T13:48:19;25.30;91.20
11961;DHT22;6040;49.358;11.140;2023-07-31T13:50:46;25.30;91.20
11961;DHT22;6040;49.358;11.140;2023-07-31T13:53:13;25.40;92.10
11961;DHT22;6040;49.358;11.140;2023-07-31T13:55:40;25.40;91.30
11961;DHT22;6040;49.358;11.140;2023-07-31T13:58:10;25.10;91.80
11961;DHT22;6040;49.358;11.140;2023-07-31T14:00:37;25.20;92.00
11961;DHT22;6040;49.358;11.140;2023-07-31T14:03:04;25.00;91.40
11961;DHT22;6040;49.358;11.140;2023-07-31T14:05:32;25.00;91.60
11961;DHT22;6040;49.358;11.140;2023-07-31T14:07:59;25.00;91.80
11961;DHT22;6040;49.358;11.140;2023-07-31T14:10:26;24.90;91.20
11961;DHT22;6040;49.358;11.140;2023-07-31T14:12:53;25.00;91.70
11961;DHT22;6040;49.358;11.140;2023-07-31T14:15:20;25.10;91.50
11961;DHT22;6040;49.358;11.140;2023-07-31T14:17:46;25.10;90.40
11961;DHT22;6040;49.358;11.140;2023-07-31T14:20:13;24.90;91.40
11961;DHT22;6040;49.358;11.140;2023-07-31T14:22:41;24.90;91.80
11961;DHT22;6040;49.358;11.140;2023-07-31T14:25:08;24.90;92.30
11961;DHT22;6040;49.358;11.140;2023-07-31T14:27:36;24.80;91.70
11961;DHT22;6040;49.358;11.140;2023-07-31T14:30:03;24.60;90.40
11961;DHT22;6040;49.358;11.140;2023-07-31T14:32:30;24.40;91.90
11961;DHT22;6040;49.358;11.140;2023-07-31T14:34:57;24.30;92.20
11961;DHT22;6040;49.358;11.140;2023-07-31T14:37:26;24.40;93.40
11961;DHT22;6040;49.358;11.140;2023-07-31T14:39:54;24.40;92.90
11961;DHT22;6040;49.358;11.140;2023-07-31T14:42:21;24.40;92.80
11961;DHT22;6040;49.358;11.140;2023-07-31T14:44:48;24.40;92.70
11961;DHT22;6040;49.358;11.140;2023-07-31T14:47:15;24.40;92.90
11961;DHT22;6040;49.358;11.140;2023-07-31T14:49:42;24.50;93.10
11961;DHT22;6040;49.358;11.140;2023-07-31T14:52:08;24.50;93.30
11961;DHT22;6040;49.358;11.140;2023-07-31T14:54:35;24.40;92.10
11961;DHT22;6040;49.358;11.140;2023-07-31T14:57:04;24.30;92.60
11961;DHT22;6040;49.358;11.140;2023-07-31T14:59:31;24.20;92.20
11961;DHT22;6040;49.358;11.140;2023-07-31T15:01:58;24.20;92.80
11961;DHT22;6040;49.358;11.140;2023-07-31T15:04:25;24.10;92.90
11961;DHT22;6040;49.358;11.140;2023-07-31T15:06:52;24.00;92.90
11961;DHT22;6040;49.358;11.140;2023-07-31T15:09:19;23.90;92.80
11961;DHT22;6040;49.358;11.140;2023-07-31T15:11:46;23.80;93.10
11961;DHT22;6040;49.358;11.140;2023-07-31T15:14:15;23.70;92.40
11961;DHT22;6040;49.358;11.140;2023-07-31T15:16:42;23.70;93.00
11961;DHT22;6040;49.358;11.140;2023-07-31T15:19:08;23.60;93.50
11961;DHT22;6040;49.358;11.140;2023-07-31T15:21:36;23.60;92.80
11961;DHT22;6040;49.358;11.140;2023-07-31T15:24:03;23.50;93.10
11961;DHT22;6040;49.358;11.140;2023-07-31T15:26:30;23.50;93.60
11961;DHT22;6040;49.358;11.140;2023-07-31T15:29:02;23.40;93.20
11961;DHT22;6040;49.358;11.140;2023-07-31T15:31:32;23.30;93.30
11961;DHT22;6040;49.358;11.140;2023-07-31T15:33:59;23.30;93.50
11961;DHT22;6040;49.358;11.140;2023-07-31T15:36:26;23.20;93.80